Terminal Aerodrome Forecast
Issued by NWS

Home | Current Version | Previous Version | Text Only | Print | Product List | Glossary On
Versions: 1 2 3 4 5 6 7 8 9 10 11 12 13 14
275
FTUS41 KCAR 251425 CCA
TAFBHB
TAF COR
KBHB 251425Z 2512/2612 33010G16KT P6SM SCT040
     FM252300 33006KT P6SM FEW060=

USA.gov is the U.S. government's official web portal to all federal, state and local government web resources and services.